sensor_id;sensor_type;location;lat;lon;timestamp;temperature;humidity
20658;DHT22;10488;50.846;4.078;2023-05-07T00:01:17;16.60;99.90
20658;DHT22;10488;50.846;4.078;2023-05-07T00:03:42;16.60;99.90
20658;DHT22;10488;50.846;4.078;2023-05-07T00:06:08;16.50;99.90
20658;DHT22;10488;50.846;4.078;2023-05-07T00:08:35;16.50;99.90
20658;DHT22;10488;50.846;4.078;2023-05-07T00:11:01;16.50;99.90
20658;DHT22;10488;50.846;4.078;2023-05-07T00:13:26;16.50;99.90
20658;DHT22;10488;50.846;4.078;2023-05-07T00:15:52;16.50;99.90
20658;DHT22;10488;50.846;4.078;2023-05-07T00:18:18;16.30;99.90
20658;DHT22;10488;50.846;4.078;2023-05-07T00:20:46;16.30;99.90
20658;DHT22;10488;50.846;4.078;2023-05-07T00:23:12;16.30;99.90
20658;DHT22;10488;50.846;4.078;2023-05-07T00:25:37;16.40;99.90
20658;DHT22;10488;50.846;4.078;2023-05-07T00:28:03;16.30;99.90
20658;DHT22;10488;50.846;4.078;2023-05-07T00:30:29;16.20;99.90
20658;DHT22;10488;50.846;4.078;2023-05-07T00:32:55;16.10;99.90
20658;DHT22;10488;50.846;4.078;2023-05-07T00:35:20;16.10;99.90
20658;DHT22;10488;50.846;4.078;2023-05-07T00:37:46;16.00;99.90
20658;DHT22;10488;50.846;4.078;2023-05-07T00:40:14;16.00;99.90
20658;DHT22;10488;50.846;4.078;2023-05-07T00:42:39;16.00;99.90
20658;DHT22;10488;50.846;4.078;2023-05-07T00:45:06;15.90;99.90
20658;DHT22;10488;50.846;4.078;2023-05-07T00:47:33;15.90;99.90
20658;DHT22;10488;50.846;4.078;2023-05-07T00:49:59;15.80;99.90
20658;DHT22;10488;50.846;4.078;2023-05-07T00:52:26;15.90;99.90
20658;DHT22;10488;50.846;4.078;2023-05-07T00:54:52;15.90;99.90
20658;DHT22;10488;50.846;4.078;2023-05-07T00:57:19;15.90;99.90
20658;DHT22;10488;50.846;4.078;2023-05-07T00:59:46;15.90;99.90
20658;DHT22;10488;50.846;4.078;2023-05-07T01:02:12;15.90;99.90
20658;DHT22;10488;50.846;4.078;2023-05-07T01:04:38;15.80;99.90
20658;DHT22;10488;50.846;4.078;2023-05-07T01:07:03;15.70;99.90
20658;DHT22;10488;50.846;4.078;2023-05-07T01:09:30;15.70;99.90
20658;DHT22;10488;50.846;4.078;2023-05-07T01:11:57;15.60;99.90
20658;DHT22;10488;50.846;4.078;2023-05-07T01:14:24;15.10;99.90
20658;DHT22;10488;50.846;4.078;2023-05-07T01:16:51;14.90;99.90
20658;DHT22;10488;50.846;4.078;2023-05-07T01:19:18;14.90;99.90
20658;DHT22;10488;50.846;4.078;2023-05-07T01:21:46;15.00;99.90
20658;DHT22;10488;50.846;4.078;2023-05-07T01:24:12;15.00;99.90
20658;DHT22;10488;50.846;4.078;2023-05-07T01:26:39;15.00;99.90
20658;DHT22;10488;50.846;4.078;2023-05-07T01:29:05;14.90;99.90
20658;DHT22;10488;50.846;4.078;2023-05-07T01:31:32;14.90;99.90
20658;DHT22;10488;50.846;4.078;2023-05-07T01:33:59;14.90;99.90
20658;DHT22;10488;50.846;4.078;2023-05-07T01:36:28;14.90;99.90
20658;DHT22;10488;50.846;4.078;2023-05-07T01:38:54;14.90;99.90
20658;DHT22;10488;50.846;4.078;2023-05-07T01:41:20;15.00;99.90
20658;DHT22;10488;50.846;4.078;2023-05-07T01:43:47;14.90;99.90
20658;DHT22;10488;50.846;4.078;2023-05-07T01:46:13;14.90;99.90
20658;DHT22;10488;50.846;4.078;2023-05-07T01:48:40;15.00;99.90
20658;DHT22;10488;50.846;4.078;2023-05-07T01:51:07;15.00;99.90
20658;DHT22;10488;50.846;4.078;2023-05-07T01:53:37;15.00;99.90
20658;DHT22;10488;50.846;4.078;2023-05-07T01:56:04;15.00;99.90
20658;DHT22;10488;50.846;4.078;2023-05-07T01:58:29;14.80;99.90
20658;DHT22;10488;50.846;4.078;2023-05-07T02:00:55;14.50;99.90
20658;DHT22;10488;50.846;4.078;2023-05-07T02:03:21;14.60;99.90
20658;DHT22;10488;50.846;4.078;2023-05-07T02:05:46;14.60;99.90
20658;DHT22;10488;50.846;4.078;2023-05-07T02:08:12;14.70;99.90
20658;DHT22;10488;50.846;4.078;2023-05-07T02:10:38;14.70;99.90
20658;DHT22;10488;50.846;4.078;2023-05-07T02:13:03;14.50;99.90
20658;DHT22;10488;50.846;4.078;2023-05-07T02:15:29;14.70;99.90
20658;DHT22;10488;50.846;4.078;2023-05-07T02:18:06;14.60;99.90
20658;DHT22;10488;50.846;4.078;2023-05-07T02:20:32;14.60;99.90
20658;DHT22;10488;50.846;4.078;2023-05-07T02:22:58;14.50;99.90
20658;DHT22;10488;50.846;4.078;2023-05-07T02:25:23;14.70;99.90
20658;DHT22;10488;50.846;4.078;2023-05-07T02:27:49;14.90;99.90
20658;DHT22;10488;50.846;4.078;2023-05-07T02:30:15;14.90;99.90
20658;DHT22;10488;50.846;4.078;2023-05-07T02:32:41;14.90;99.90
20658;DHT22;10488;50.846;4.078;2023-05-07T02:35:06;15.10;99.90
20658;DHT22;10488;50.846;4.078;2023-05-07T02:37:32;15.00;99.90
20658;DHT22;10488;50.846;4.078;2023-05-07T02:39:58;14.80;99.90
20658;DHT22;10488;50.846;4.078;2023-05-07T02:42:24;15.00;99.90
20658;DHT22;10488;50.846;4.078;2023-05-07T02:44:49;15.00;99.90
20658;DHT22;10488;50.846;4.078;2023-05-07T02:47:15;15.00;99.90
20658;DHT22;10488;50.846;4.078;2023-05-07T02:49:41;14.90;99.90
20658;DHT22;10488;50.846;4.078;2023-05-07T02:52:06;14.70;99.90
20658;DHT22;10488;50.846;4.078;2023-05-07T02:54:32;14.80;99.90
20658;DHT22;10488;50.846;4.078;2023-05-07T02:56:58;14.60;99.90
20658;DHT22;10488;50.846;4.078;2023-05-07T02:59:24;14.70;99.90
20658;DHT22;10488;50.846;4.078;2023-05-07T03:01:51;14.80;99.90
20658;DHT22;10488;50.846;4.078;2023-05-07T03:04:17;15.00;99.90
20658;DHT22;10488;50.846;4.078;2023-05-07T03:06:43;15.00;99.90
20658;DHT22;10488;50.846;4.078;2023-05-07T03:09:08;15.00;99.90
20658;DHT22;10488;50.846;4.078;2023-05-07T03:11:34;14.90;99.90
20658;DHT22;10488;50.846;4.078;2023-05-07T03:14:01;15.00;99.90
20658;DHT22;10488;50.846;4.078;2023-05-07T03:16:27;15.10;99.90
20658;DHT22;10488;50.846;4.078;2023-05-07T03:18:52;15.10;99.90
20658;DHT22;10488;50.846;4.078;2023-05-07T03:21:18;15.20;99.90
20658;DHT22;10488;50.846;4.078;2023-05-07T03:23:44;15.00;99.90
20658;DHT22;10488;50.846;4.078;2023-05-07T03:26:10;15.20;99.90
20658;DHT22;10488;50.846;4.078;2023-05-07T03:28:36;15.20;99.90
20658;DHT22;10488;50.846;4.078;2023-05-07T03:31:02;15.20;99.90
20658;DHT22;10488;50.846;4.078;2023-05-07T03:33:28;15.00;99.90
20658;DHT22;10488;50.846;4.078;2023-05-07T03:35:53;15.20;99.90
20658;DHT22;10488;50.846;4.078;2023-05-07T03:38:19;15.20;99.90
20658;DHT22;10488;50.846;4.078;2023-05-07T03:40:45;15.20;99.90
20658;DHT22;10488;50.846;4.078;2023-05-07T03:43:11;15.20;99.90
20658;DHT22;10488;50.846;4.078;2023-05-07T03:45:36;15.00;99.90
20658;DHT22;10488;50.846;4.078;2023-05-07T03:48:02;14.90;99.90
20658;DHT22;10488;50.846;4.078;2023-05-07T03:50:28;14.80;99.90
20658;DHT22;10488;50.846;4.078;2023-05-07T03:52:54;14.90;99.90
20658;DHT22;10488;50.846;4.078;2023-05-07T03:55:19;15.00;99.90
20658;DHT22;10488;50.846;4.078;2023-05-07T03:57:45;15.10;99.90
20658;DHT22;10488;50.846;4.078;2023-05-07T04:00:11;14.90;99.90
20658;DHT22;10488;50.846;4.078;2023-05-07T04:02:37;14.90;99.90
20658;DHT22;10488;50.846;4.078;2023-05-07T04:05:03;14.60;99.90
20658;DHT22;10488;50.846;4.078;2023-05-07T04:07:29;14.50;99.90
20658;DHT22;10488;50.846;4.078;2023-05-07T04:09:54;14.60;99.90
20658;DHT22;10488;50.846;4.078;2023-05-07T04:12:20;14.80;99.90
20658;DHT22;10488;50.846;4.078;2023-05-07T04:14:45;15.00;99.90
20658;DHT22;10488;50.846;4.078;2023-05-07T04:17:11;15.20;99.90
20658;DHT22;10488;50.846;4.078;2023-05-07T04:19:37;15.20;99.90
20658;DHT22;10488;50.846;4.078;2023-05-07T04:22:03;15.10;99.90
20658;DHT22;10488;50.846;4.078;2023-05-07T04:24:31;15.20;99.90
20658;DHT22;10488;50.846;4.078;2023-05-07T04:26:58;15.30;99.90
20658;DHT22;10488;50.846;4.078;2023-05-07T04:29:24;15.00;99.90
20658;DHT22;10488;50.846;4.078;2023-05-07T04:31:49;14.70;99.90
20658;DHT22;10488;50.846;4.078;2023-05-07T04:34:15;14.60;99.90
20658;DHT22;10488;50.846;4.078;2023-05-07T04:36:42;14.60;99.90
20658;DHT22;10488;50.846;4.078;2023-05-07T04:39:07;14.60;99.90
20658;DHT22;10488;50.846;4.078;2023-05-07T04:41:35;14.80;99.90
20658;DHT22;10488;50.846;4.078;2023-05-07T04:44:01;14.80;99.90
20658;DHT22;10488;50.846;4.078;2023-05-07T04:46:30;14.70;99.90
20658;DHT22;10488;50.846;4.078;2023-05-07T04:48:55;14.80;99.90
20658;DHT22;10488;50.846;4.078;2023-05-07T04:51:21;15.00;99.90
20658;DHT22;10488;50.846;4.078;2023-05-07T04:53:48;15.10;99.90
20658;DHT22;10488;50.846;4.078;2023-05-07T04:56:14;15.30;99.90
20658;DHT22;10488;50.846;4.078;2023-05-07T04:58:40;15.30;99.90
20658;DHT22;10488;50.846;4.078;2023-05-07T05:01:05;15.30;99.90
20658;DHT22;10488;50.846;4.078;2023-05-07T05:03:31;15.20;99.90
20658;DHT22;10488;50.846;4.078;2023-05-07T05:05:57;15.20;99.90
20658;DHT22;10488;50.846;4.078;2023-05-07T05:08:25;15.20;99.90
20658;DHT22;10488;50.846;4.078;2023-05-07T05:10:51;15.40;99.90
20658;DHT22;10488;50.846;4.078;2023-05-07T05:13:16;15.70;99.90
20658;DHT22;10488;50.846;4.078;2023-05-07T05:15:42;15.60;99.90
20658;DHT22;10488;50.846;4.078;2023-05-07T05:18:08;15.90;99.90
20658;DHT22;10488;50.846;4.078;2023-05-07T05:20:34;16.10;99.90
20658;DHT22;10488;50.846;4.078;2023-05-07T05:22:59;16.40;99.90
20658;DHT22;10488;50.846;4.078;2023-05-07T05:25:25;16.50;99.90
20658;DHT22;10488;50.846;4.078;2023-05-07T05:27:51;16.60;99.90
20658;DHT22;10488;50.846;4.078;2023-05-07T05:30:17;16.50;99.90
20658;DHT22;10488;50.846;4.078;2023-05-07T05:32:42;16.10;99.90
20658;DHT22;10488;50.846;4.078;2023-05-07T05:35:08;15.90;99.90
20658;DHT22;10488;50.846;4.078;2023-05-07T05:37:34;15.90;99.90
20658;DHT22;10488;50.846;4.078;2023-05-07T05:39:59;16.00;99.90
20658;DHT22;10488;50.846;4.078;2023-05-07T05:42:25;15.80;99.90
20658;DHT22;10488;50.846;4.078;2023-05-07T05:44:51;15.90;99.90
20658;DHT22;10488;50.846;4.078;2023-05-07T05:47:16;15.80;99.90
20658;DHT22;10488;50.846;4.078;2023-05-07T05:49:42;16.00;99.90
20658;DHT22;10488;50.846;4.078;2023-05-07T05:52:09;16.00;99.90
20658;DHT22;10488;50.846;4.078;2023-05-07T05:54:35;15.90;99.90
20658;DHT22;10488;50.846;4.078;2023-05-07T05:57:00;16.20;99.90
20658;DHT22;10488;50.846;4.078;2023-05-07T05:59:29;16.30;99.90
20658;DHT22;10488;50.846;4.078;2023-05-07T06:01:55;16.40;99.90
20658;DHT22;10488;50.846;4.078;2023-05-07T06:04:20;16.50;99.90
20658;DHT22;10488;50.846;4.078;2023-05-07T06:06:46;16.60;99.90
20658;DHT22;10488;50.846;4.078;2023-05-07T06:09:12;16.30;99.90
20658;DHT22;10488;50.846;4.078;2023-05-07T06:11:37;16.10;99.90
20658;DHT22;10488;50.846;4.078;2023-05-07T06:14:03;16.30;99.90
20658;DHT22;10488;50.846;4.078;2023-05-07T06:16:29;16.30;99.90
20658;DHT22;10488;50.846;4.078;2023-05-07T06:18:55;16.10;99.90
20658;DHT22;10488;50.846;4.078;2023-05-07T06:21:21;16.30;99.90
20658;DHT22;10488;50.846;4.078;2023-05-07T06:23:46;16.30;99.90
20658;DHT22;10488;50.846;4.078;2023-05-07T06:26:12;16.40;99.90
20658;DHT22;10488;50.846;4.078;2023-05-07T06:28:38;16.70;99.90
20658;DHT22;10488;50.846;4.078;2023-05-07T06:31:17;16.70;99.90
20658;DHT22;10488;50.846;4.078;2023-05-07T06:33:44;16.60;99.90
20658;DHT22;10488;50.846;4.078;2023-05-07T06:36:10;16.30;99.90
20658;DHT22;10488;50.846;4.078;2023-05-07T06:38:35;16.40;99.90
20658;DHT22;10488;50.846;4.078;2023-05-07T06:41:01;16.40;99.90
20658;DHT22;10488;50.846;4.078;2023-05-07T06:43:27;16.40;99.90
20658;DHT22;10488;50.846;4.078;2023-05-07T06:45:53;16.60;99.90
20658;DHT22;10488;50.846;4.078;2023-05-07T06:48:18;16.40;99.90
20658;DHT22;10488;50.846;4.078;2023-05-07T06:50:44;16.50;99.90
20658;DHT22;10488;50.846;4.078;2023-05-07T06:53:10;16.70;99.90
20658;DHT22;10488;50.846;4.078;2023-05-07T06:55:35;16.50;99.90
20658;DHT22;10488;50.846;4.078;2023-05-07T06:58:03;16.50;99.90
20658;DHT22;10488;50.846;4.078;2023-05-07T07:00:29;16.80;99.90
20658;DHT22;10488;50.846;4.078;2023-05-07T07:02:55;16.90;99.90
20658;DHT22;10488;50.846;4.078;2023-05-07T07:05:21;16.80;99.90
20658;DHT22;10488;50.846;4.078;2023-05-07T07:07:46;16.70;99.90
20658;DHT22;10488;50.846;4.078;2023-05-07T07:10:21;16.60;99.90
20658;DHT22;10488;50.846;4.078;2023-05-07T07:12:48;16.90;99.90
20658;DHT22;10488;50.846;4.078;2023-05-07T07:15:14;16.90;99.90
20658;DHT22;10488;50.846;4.078;2023-05-07T07:17:40;16.80;99.90
20658;DHT22;10488;50.846;4.078;2023-05-07T07:20:06;17.00;99.90
20658;DHT22;10488;50.846;4.078;2023-05-07T07:22:32;17.00;99.90
20658;DHT22;10488;50.846;4.078;2023-05-07T07:24:58;17.10;99.90
20658;DHT22;10488;50.846;4.078;2023-05-07T07:27:23;16.90;99.90
20658;DHT22;10488;50.846;4.078;2023-05-07T07:29:49;16.90;99.90
20658;DHT22;10488;50.846;4.078;2023-05-07T07:32:15;17.20;99.90
20658;DHT22;10488;50.846;4.078;2023-05-07T07:34:41;17.40;99.90
20658;DHT22;10488;50.846;4.078;2023-05-07T07:37:07;17.30;99.90
20658;DHT22;10488;50.846;4.078;2023-05-07T07:39:33;17.40;99.90
20658;DHT22;10488;50.846;4.078;2023-05-07T07:41:59;17.70;99.90
20658;DHT22;10488;50.846;4.078;2023-05-07T07:44:25;17.80;99.90
20658;DHT22;10488;50.846;4.078;2023-05-07T07:46:51;18.00;99.90
20658;DHT22;10488;50.846;4.078;2023-05-07T07:49:16;17.60;99.90
20658;DHT22;10488;50.846;4.078;2023-05-07T07:51:42;17.40;99.90
20658;DHT22;10488;50.846;4.078;2023-05-07T07:54:08;17.70;99.90
20658;DHT22;10488;50.846;4.078;2023-05-07T07:56:34;17.50;99.90
20658;DHT22;10488;50.846;4.078;2023-05-07T07:59:00;17.50;99.90
20658;DHT22;10488;50.846;4.078;2023-05-07T08:01:26;17.60;99.90
20658;DHT22;10488;50.846;4.078;2023-05-07T08:03:52;17.80;99.90
20658;DHT22;10488;50.846;4.078;2023-05-07T08:06:18;18.00;99.90
20658;DHT22;10488;50.846;4.078;2023-05-07T08:08:44;18.10;99.90
20658;DHT22;10488;50.846;4.078;2023-05-07T08:11:10;18.00;99.90
20658;DHT22;10488;50.846;4.078;2023-05-07T08:13:36;17.90;99.90
20658;DHT22;10488;50.846;4.078;2023-05-07T08:16:02;17.70;99.90
20658;DHT22;10488;50.846;4.078;2023-05-07T08:18:28;17.90;99.90
20658;DHT22;10488;50.846;4.078;2023-05-07T08:20:54;18.00;99.90
20658;DHT22;10488;50.846;4.078;2023-05-07T08:23:20;17.90;99.90
20658;DHT22;10488;50.846;4.078;2023-05-07T08:25:46;17.60;99.90
20658;DHT22;10488;50.846;4.078;2023-05-07T08:28:12;17.70;99.90
20658;DHT22;10488;50.846;4.078;2023-05-07T08:30:37;17.70;99.90
20658;DHT22;10488;50.846;4.078;2023-05-07T08:33:03;17.60;99.90
20658;DHT22;10488;50.846;4.078;2023-05-07T08:35:29;17.70;99.90
20658;DHT22;10488;50.846;4.078;2023-05-07T08:37:55;17.70;99.90
20658;DHT22;10488;50.846;4.078;2023-05-07T08:40:25;17.80;99.90
20658;DHT22;10488;50.846;4.078;2023-05-07T08:42:52;18.00;99.90
20658;DHT22;10488;50.846;4.078;2023-05-07T08:45:19;17.90;99.90
20658;DHT22;10488;50.846;4.078;2023-05-07T08:47:51;17.60;99.90
20658;DHT22;10488;50.846;4.078;2023-05-07T08:50:18;17.40;99.90
20658;DHT22;10488;50.846;4.078;2023-05-07T08:52:46;17.20;99.90
20658;DHT22;10488;50.846;4.078;2023-05-07T08:55:12;17.20;99.90
20658;DHT22;10488;50.846;4.078;2023-05-07T08:57:38;17.00;99.90
20658;DHT22;10488;50.846;4.078;2023-05-07T09:00:05;17.00;99.90
20658;DHT22;10488;50.846;4.078;2023-05-07T09:02:33;16.80;99.90
20658;DHT22;10488;50.846;4.078;2023-05-07T09:04:58;16.60;99.90
20658;DHT22;10488;50.846;4.078;2023-05-07T09:07:25;16.80;99.90
20658;DHT22;10488;50.846;4.078;2023-05-07T09:09:52;16.80;99.90
20658;DHT22;10488;50.846;4.078;2023-05-07T09:12:18;16.80;99.90
20658;DHT22;10488;50.846;4.078;2023-05-07T09:14:44;16.80;99.90
20658;DHT22;10488;50.846;4.078;2023-05-07T09:17:11;17.10;99.90
20658;DHT22;10488;50.846;4.078;2023-05-07T09:19:36;17.50;99.90
20658;DHT22;10488;50.846;4.078;2023-05-07T09:22:04;17.90;99.90
20658;DHT22;10488;50.846;4.078;2023-05-07T09:24:30;18.30;99.90
20658;DHT22;10488;50.846;4.078;2023-05-07T09:27:01;18.40;99.90
20658;DHT22;10488;50.846;4.078;2023-05-07T09:29:28;18.80;99.90
20658;DHT22;10488;50.846;4.078;2023-05-07T09:31:55;18.20;99.90
20658;DHT22;10488;50.846;4.078;2023-05-07T09:34:21;18.40;99.90
20658;DHT22;10488;50.846;4.078;2023-05-07T09:36:47;18.70;99.90
20658;DHT22;10488;50.846;4.078;2023-05-07T09:39:13;18.20;99.90
20658;DHT22;10488;50.846;4.078;2023-05-07T09:41:47;18.20;99.90
20658;DHT22;10488;50.846;4.078;2023-05-07T09:44:14;17.70;99.90
20658;DHT22;10488;50.846;4.078;2023-05-07T09:46:43;17.30;99.90
20658;DHT22;10488;50.846;4.078;2023-05-07T09:49:18;17.70;99.90
20658;DHT22;10488;50.846;4.078;2023-05-07T09:51:48;18.00;99.90
20658;DHT22;10488;50.846;4.078;2023-05-07T09:54:16;18.50;99.90
20658;DHT22;10488;50.846;4.078;2023-05-07T09:56:43;18.30;99.90
20658;DHT22;10488;50.846;4.078;2023-05-07T09:59:12;18.30;99.90
20658;DHT22;10488;50.846;4.078;2023-05-07T10:01:38;18.80;99.90
20658;DHT22;10488;50.846;4.078;2023-05-07T10:04:06;19.00;99.90
20658;DHT22;10488;50.846;4.078;2023-05-07T10:06:34;18.70;99.90
20658;DHT22;10488;50.846;4.078;2023-05-07T10:09:00;18.80;99.90
20658;DHT22;10488;50.846;4.078;2023-05-07T10:11:26;18.70;99.90
20658;DHT22;10488;50.846;4.078;2023-05-07T10:13:53;18.70;99.90
20658;DHT22;10488;50.846;4.078;2023-05-07T10:16:19;18.90;99.90
20658;DHT22;10488;50.846;4.078;2023-05-07T10:18:46;18.90;99.90
20658;DHT22;10488;50.846;4.078;2023-05-07T10:21:20;18.90;99.90
20658;DHT22;10488;50.846;4.078;2023-05-07T10:23:55;19.20;99.90
20658;DHT22;10488;50.846;4.078;2023-05-07T10:26:23;19.00;99.90
20658;DHT22;10488;50.846;4.078;2023-05-07T10:28:54;18.80;99.90
20658;DHT22;10488;50.846;4.078;2023-05-07T10:33:48;18.10;99.90
20658;DHT22;10488;50.846;4.078;2023-05-07T10:36:17;18.30;99.90
20658;DHT22;10488;50.846;4.078;2023-05-07T10:38:43;18.10;99.90
20658;DHT22;10488;50.846;4.078;2023-05-07T10:41:10;18.50;99.90
20658;DHT22;10488;50.846;4.078;2023-05-07T10:43:44;18.20;99.90
20658;DHT22;10488;50.846;4.078;2023-05-07T10:46:20;18.40;99.90
20658;DHT22;10488;50.846;4.078;2023-05-07T10:51:29;18.40;99.90
20658;DHT22;10488;50.846;4.078;2023-05-07T10:54:19;18.10;99.90
20658;DHT22;10488;50.846;4.078;2023-05-07T10:56:45;17.60;99.90
20658;DHT22;10488;50.846;4.078;2023-05-07T11:01:54;18.30;99.90
20658;DHT22;10488;50.846;4.078;2023-05-07T11:04:20;18.70;99.90
20658;DHT22;10488;50.846;4.078;2023-05-07T11:15:43;18.60;99.90
20658;DHT22;10488;50.846;4.078;2023-05-07T11:18:10;19.00;99.90
20658;DHT22;10488;50.846;4.078;2023-05-07T11:20:54;18.90;99.90
20658;DHT22;10488;50.846;4.078;2023-05-07T11:26:02;19.40;99.90
20658;DHT22;10488;50.846;4.078;2023-05-07T11:28:29;19.70;99.90
20658;DHT22;10488;50.846;4.078;2023-05-07T11:30:56;19.90;99.90
20658;DHT22;10488;50.846;4.078;2023-05-07T11:33:23;20.00;99.90
20658;DHT22;10488;50.846;4.078;2023-05-07T11:35:52;20.20;99.90
20658;DHT22;10488;50.846;4.078;2023-05-07T11:38:18;19.90;99.90
20658;DHT22;10488;50.846;4.078;2023-05-07T11:43:16;19.80;99.90
20658;DHT22;10488;50.846;4.078;2023-05-07T11:45:43;20.10;99.90
20658;DHT22;10488;50.846;4.078;2023-05-07T11:48:09;20.20;99.90
20658;DHT22;10488;50.846;4.078;2023-05-07T11:50:35;20.60;99.90
20658;DHT22;10488;50.846;4.078;2023-05-07T11:53:07;20.40;99.90
20658;DHT22;10488;50.846;4.078;2023-05-07T11:55:33;20.30;99.90
20658;DHT22;10488;50.846;4.078;2023-05-07T11:57:59;20.20;99.90
20658;DHT22;10488;50.846;4.078;2023-05-07T12:00:24;20.30;99.90
20658;DHT22;10488;50.846;4.078;2023-05-07T12:02:50;20.20;99.90
20658;DHT22;10488;50.846;4.078;2023-05-07T12:05:16;20.50;99.90
20658;DHT22;10488;50.846;4.078;2023-05-07T12:07:42;20.40;99.90
20658;DHT22;10488;50.846;4.078;2023-05-07T12:10:08;20.40;99.90
20658;DHT22;10488;50.846;4.078;2023-05-07T12:12:40;20.40;99.90
20658;DHT22;10488;50.846;4.078;2023-05-07T12:15:07;20.60;99.90
20658;DHT22;10488;50.846;4.078;2023-05-07T12:17:33;20.80;99.90
20658;DHT22;10488;50.846;4.078;2023-05-07T12:20:00;21.00;99.90
20658;DHT22;10488;50.846;4.078;2023-05-07T12:22:25;21.00;99.90
20658;DHT22;10488;50.846;4.078;2023-05-07T12:24:58;20.60;99.90
20658;DHT22;10488;50.846;4.078;2023-05-07T12:27:25;20.60;99.90
20658;DHT22;10488;50.846;4.078;2023-05-07T12:29:51;20.90;99.90
20658;DHT22;10488;50.846;4.078;2023-05-07T12:32:20;21.20;99.90
20658;DHT22;10488;50.846;4.078;2023-05-07T12:34:46;21.20;99.90
20658;DHT22;10488;50.846;4.078;2023-05-07T12:37:12;20.70;99.90
20658;DHT22;10488;50.846;4.078;2023-05-07T12:39:44;20.90;99.90
20658;DHT22;10488;50.846;4.078;2023-05-07T12:42:15;20.80;99.90
20658;DHT22;10488;50.846;4.078;2023-05-07T12:44:41;21.10;99.90
20658;DHT22;10488;50.846;4.078;2023-05-07T12:47:07;21.10;99.90
20658;DHT22;10488;50.846;4.078;2023-05-07T12:49:34;20.70;99.90
20658;DHT22;10488;50.846;4.078;2023-05-07T12:52:03;20.50;99.90
20658;DHT22;10488;50.846;4.078;2023-05-07T12:54:34;20.30;99.90
20658;DHT22;10488;50.846;4.078;2023-05-07T12:57:05;20.30;99.90
20658;DHT22;10488;50.846;4.078;2023-05-07T12:59:40;20.10;99.90
20658;DHT22;10488;50.846;4.078;2023-05-07T13:02:06;20.10;99.90
20658;DHT22;10488;50.846;4.078;2023-05-07T13:04:33;20.30;99.90
20658;DHT22;10488;50.846;4.078;2023-05-07T13:06:59;20.20;99.90
20658;DHT22;10488;50.846;4.078;2023-05-07T13:09:25;20.60;99.90
20658;DHT22;10488;50.846;4.078;2023-05-07T13:11:51;20.50;99.90
20658;DHT22;10488;50.846;4.078;2023-05-07T13:14:16;20.80;99.90
20658;DHT22;10488;50.846;4.078;2023-05-07T13:16:42;20.60;99.90
20658;DHT22;10488;50.846;4.078;2023-05-07T13:19:08;20.80;99.90
20658;DHT22;10488;50.846;4.078;2023-05-07T13:21:33;20.70;99.90
20658;DHT22;10488;50.846;4.078;2023-05-07T13:23:59;20.80;99.90
20658;DHT22;10488;50.846;4.078;2023-05-07T13:26:26;20.70;99.90
20658;DHT22;10488;50.846;4.078;2023-05-07T13:28:54;20.70;99.90
20658;DHT22;10488;50.846;4.078;2023-05-07T13:31:20;20.70;99.90
20658;DHT22;10488;50.846;4.078;2023-05-07T13:33:46;20.90;99.90
20658;DHT22;10488;50.846;4.078;2023-05-07T13:36:12;21.20;99.90
20658;DHT22;10488;50.846;4.078;2023-05-07T13:38:39;20.90;99.90
20658;DHT22;10488;50.846;4.078;2023-05-07T13:41:04;20.40;99.90
20658;DHT22;10488;50.846;4.078;2023-05-07T13:43:30;20.90;99.90
20658;DHT22;10488;50.846;4.078;2023-05-07T13:45:57;21.30;99.90
20658;DHT22;10488;50.846;4.078;2023-05-07T13:48:22;21.20;99.90
20658;DHT22;10488;50.846;4.078;2023-05-07T13:50:48;21.00;99.90
20658;DHT22;10488;50.846;4.078;2023-05-07T13:53:14;20.30;99.90
20658;DHT22;10488;50.846;4.078;2023-05-07T13:55:43;20.40;99.90
20658;DHT22;10488;50.846;4.078;2023-05-07T13:58:09;20.60;99.90
20658;DHT22;10488;50.846;4.078;2023-05-07T14:00:35;20.90;99.90
20658;DHT22;10488;50.846;4.078;2023-05-07T14:03:00;20.80;99.90
20658;DHT22;10488;50.846;4.078;2023-05-07T14:05:26;20.90;99.90
20658;DHT22;10488;50.846;4.078;2023-05-07T14:07:54;20.90;99.90
20658;DHT22;10488;50.846;4.078;2023-05-07T14:10:22;21.20;99.90
20658;DHT22;10488;50.846;4.078;2023-05-07T14:12:47;21.20;99.90
20658;DHT22;10488;50.846;4.078;2023-05-07T14:15:13;21.30;99.90
20658;DHT22;10488;50.846;4.078;2023-05-07T14:17:39;21.80;99.90
20658;DHT22;10488;50.846;4.078;2023-05-07T14:20:05;21.50;99.90
20658;DHT22;10488;50.846;4.078;2023-05-07T14:22:32;21.30;99.90
20658;DHT22;10488;50.846;4.078;2023-05-07T14:24:58;21.10;99.90
20658;DHT22;10488;50.846;4.078;2023-05-07T14:27:23;21.10;99.90
20658;DHT22;10488;50.846;4.078;2023-05-07T14:29:49;20.80;99.90
20658;DHT22;10488;50.846;4.078;2023-05-07T14:32:19;21.20;99.90
20658;DHT22;10488;50.846;4.078;2023-05-07T14:34:45;21.20;99.90
20658;DHT22;10488;50.846;4.078;2023-05-07T14:37:11;21.20;99.90
20658;DHT22;10488;50.846;4.078;2023-05-07T14:39:37;21.30;99.90
20658;DHT22;10488;50.846;4.078;2023-05-07T14:42:03;21.60;99.90
20658;DHT22;10488;50.846;4.078;2023-05-07T14:44:29;20.90;99.90
20658;DHT22;10488;50.846;4.078;2023-05-07T14:46:55;20.90;99.90
20658;DHT22;10488;50.846;4.078;2023-05-07T14:49:20;20.80;99.90
20658;DHT22;10488;50.846;4.078;2023-05-07T14:51:47;20.90;99.90
20658;DHT22;10488;50.846;4.078;2023-05-07T14:54:13;21.20;99.90
20658;DHT22;10488;50.846;4.078;2023-05-07T14:56:39;21.50;99.90
20658;DHT22;10488;50.846;4.078;2023-05-07T14:59:05;21.80;99.90
20658;DHT22;10488;50.846;4.078;2023-05-07T15:01:31;21.80;99.90
20658;DHT22;10488;50.846;4.078;2023-05-07T15:03:56;21.60;99.90
20658;DHT22;10488;50.846;4.078;2023-05-07T15:06:22;21.60;99.90
20658;DHT22;10488;50.846;4.078;2023-05-07T15:08:48;21.50;99.90
20658;DHT22;10488;50.846;4.078;2023-05-07T15:11:14;21.70;99.90
20658;DHT22;10488;50.846;4.078;2023-05-07T15:13:41;21.80;99.90
20658;DHT22;10488;50.846;4.078;2023-05-07T15:16:07;21.90;99.90
20658;DHT22;10488;50.846;4.078;2023-05-07T15:18:33;22.00;99.90
20658;DHT22;10488;50.846;4.078;2023-05-07T15:20:58;21.90;99.90
20658;DHT22;10488;50.846;4.078;2023-05-07T15:23:24;22.00;99.90
20658;DHT22;10488;50.846;4.078;2023-05-07T15:25:51;21.70;99.90
20658;DHT22;10488;50.846;4.078;2023-05-07T15:28:17;21.30;99.90
20658;DHT22;10488;50.846;4.078;2023-05-07T15:30:43;21.30;99.90
20658;DHT22;10488;50.846;4.078;2023-05-07T15:33:09;21.20;99.90
20658;DHT22;10488;50.846;4.078;2023-05-07T15:35:35;21.00;99.90
20658;DHT22;10488;50.846;4.078;2023-05-07T15:38:00;20.60;99.90
20658;DHT22;10488;50.846;4.078;2023-05-07T15:40:28;20.80;99.90
20658;DHT22;10488;50.846;4.078;2023-05-07T15:42:55;20.50;99.90
20658;DHT22;10488;50.846;4.078;2023-05-07T15:45:21;21.00;99.90
20658;DHT22;10488;50.846;4.078;2023-05-07T15:47:47;20.90;99.90